createdAt,value
2018-10-19T04:33:01.381Z,58.03
2018-10-19T04:35:29.506Z,83.43
2018-10-19T04:37:57.513Z,73.20
2018-10-19T04:40:25.911Z,76.43
2018-10-19T04:42:54.361Z,72.27
2018-10-19T04:45:22.609Z,80.93
2018-10-19T04:47:50.800Z,76.07
2018-10-19T04:50:20.224Z,99.80
2018-10-19T04:52:49.165Z,71.63
2018-10-19T04:55:18.941Z,106.40
2018-10-19T04:57:47.333Z,98.03
2018-10-19T05:00:17.047Z,106.40
2018-10-19T05:02:46.655Z,72.90
2018-10-19T05:05:15.053Z,87.30
2018-10-19T05:07:43.024Z,80.43
2018-10-19T05:10:11.663Z,82.70
2018-10-19T05:12:40.282Z,76.93
2018-10-19T05:15:09.002Z,93.10
2018-10-19T05:17:37.045Z,82.37
2018-10-19T05:20:06.150Z,74.03
2018-10-19T05:22:34.160Z,68.60
2018-10-19T05:25:02.205Z,65.37
2018-10-19T05:27:30.281Z,60.47
2018-10-19T05:29:58.331Z,73.33
2018-10-19T05:32:26.410Z,61.10
2018-10-19T05:34:54.522Z,49.70
2018-10-19T05:37:22.547Z,58.70
2018-10-19T05:39:50.794Z,51.93
2018-10-19T05:42:19.205Z,52.67
2018-10-19T05:44:47.870Z,53.93
2018-10-19T05:47:16.277Z,54.33
2018-10-19T05:49:44.526Z,54.87
2018-10-19T05:52:12.619Z,54.80
2018-10-19T05:54:41.000Z,54.97
2018-10-19T05:57:09.044Z,57.10
2018-10-19T05:59:37.178Z,55.10
2018-10-19T06:02:05.669Z,55.67
2018-10-19T06:04:33.609Z,55.00
2018-10-19T06:07:01.847Z,59.60
2018-10-19T06:09:31.964Z,64.10
2018-10-19T06:12:00.357Z,53.27
2018-10-19T06:14:28.490Z,57.87
2018-10-19T06:16:56.900Z,61.00
2018-10-19T06:19:25.661Z,60.30
2018-10-19T06:21:54.381Z,53.80
2018-10-19T06:24:22.733Z,53.77
2018-10-19T06:26:52.289Z,58.33
2018-10-19T06:29:22.244Z,55.23
2018-10-19T06:31:51.491Z,65.20
2018-10-19T06:34:20.007Z,53.43
2018-10-19T06:36:48.266Z,53.27
2018-10-19T06:39:17.241Z,49.93
2018-10-19T06:41:45.232Z,50.50
2018-10-19T06:44:13.328Z,70.70
2018-10-19T06:46:41.584Z,49.17
2018-10-19T06:49:09.619Z,61.90
2018-10-19T06:51:37.538Z,64.63
2018-10-19T06:54:05.520Z,51.57
2018-10-19T06:56:33.814Z,60.50
2018-10-19T06:59:01.883Z,55.73
2018-10-19T07:01:29.853Z,51.57
2018-10-19T07:03:58.384Z,54.80
2018-10-19T07:06:26.417Z,62.50
2018-10-19T07:08:54.412Z,57.70
2018-10-19T07:11:22.413Z,57.70
2018-10-19T07:13:50.642Z,52.97
2018-10-19T07:16:19.285Z,53.10
2018-10-19T07:18:47.292Z,50.60
2018-10-19T07:21:15.646Z,51.87
2018-10-19T07:23:43.665Z,53.73
2018-10-19T07:26:11.927Z,50.97
2018-10-19T07:28:39.966Z,55.67
2018-10-19T07:31:07.999Z,52.90
2018-10-19T07:33:35.978Z,53.67
2018-10-19T07:36:04.250Z,55.73
2018-10-19T07:38:32.554Z,53.60
2018-10-19T07:41:00.699Z,51.40
2018-10-19T07:43:28.674Z,53.57
2018-10-19T07:45:56.707Z,54.87
2018-10-19T07:48:24.837Z,50.40
2018-10-19T07:50:52.913Z,51.50
2018-10-19T07:53:20.941Z,49.27
2018-10-19T07:55:50.034Z,48.83
2018-10-19T07:58:18.177Z,48.73
2018-10-19T08:00:46.276Z,46.77
2018-10-19T08:03:14.187Z,46.73
2018-10-19T08:05:42.235Z,46.83
2018-10-19T08:08:10.222Z,47.60
2018-10-19T08:10:38.245Z,47.90
2018-10-19T08:13:06.387Z,48.40
2018-10-19T08:15:34.417Z,49.50
2018-10-19T08:18:02.573Z,50.20
2018-10-19T08:20:30.578Z,52.13
2018-10-19T08:22:58.612Z,49.47
2018-10-19T08:25:26.604Z,48.50
2018-10-19T08:27:54.631Z,49.80
2018-10-19T08:30:22.681Z,50.87
2018-10-19T08:32:50.676Z,49.00
2018-10-19T08:35:19.053Z,49.13
2018-10-19T08:37:47.110Z,44.80
2018-10-19T08:40:15.147Z,46.80
2018-10-19T08:42:43.367Z,49.27
2018-10-19T08:45:11.411Z,48.33
2018-10-19T08:47:39.435Z,47.20
2018-10-19T08:50:07.761Z,48.70
2018-10-19T08:52:35.801Z,49.57
2018-10-19T08:55:04.089Z,52.87
2018-10-19T08:57:32.138Z,51.27
2018-10-19T09:00:00.201Z,48.60
2018-10-19T09:02:28.213Z,49.40
2018-10-19T09:04:56.315Z,45.97
2018-10-19T09:07:24.297Z,51.20
2018-10-19T09:09:52.709Z,47.63
2018-10-19T09:12:20.761Z,47.97
2018-10-19T09:14:53.351Z,48.27
2018-10-19T09:17:21.281Z,48.33
2018-10-19T09:19:49.598Z,49.07
2018-10-19T09:22:17.985Z,48.47
2018-10-19T09:24:45.956Z,46.90
2018-10-19T09:27:14.038Z,50.97
2018-10-19T09:29:42.264Z,48.80
2018-10-19T09:32:23.609Z,46.57
2018-10-19T09:34:51.624Z,48.40
2018-10-19T09:37:19.586Z,47.37
2018-10-19T09:39:47.641Z,46.77
2018-10-19T09:42:15.611Z,46.07
2018-10-19T09:44:43.636Z,46.03
2018-10-19T09:47:12.308Z,46.47
2018-10-19T09:49:40.239Z,46.20
2018-10-19T09:52:08.261Z,48.57
2018-10-19T09:54:36.282Z,46.40
2018-10-19T09:57:04.651Z,46.50
2018-10-19T09:59:32.657Z,44.70
2018-10-19T10:02:00.714Z,45.37
2018-10-19T10:04:28.699Z,47.83
2018-10-19T10:06:56.735Z,47.53
2018-10-19T10:09:24.704Z,47.10
2018-10-19T10:11:53.130Z,45.87
2018-10-19T10:14:21.100Z,49.00
2018-10-19T10:16:49.160Z,49.27
2018-10-19T10:19:17.402Z,45.10
2018-10-19T10:21:45.464Z,46.40
2018-10-19T10:24:13.527Z,46.97
2018-10-19T10:26:41.577Z,45.43
2018-10-19T10:29:09.981Z,45.90
2018-10-19T10:31:38.001Z,44.10
2018-10-19T10:34:06.919Z,46.10
2018-10-19T10:36:36.620Z,45.23
2018-10-19T10:39:07.350Z,46.17
2018-10-19T10:41:35.254Z,47.33
2018-10-19T10:44:03.257Z,45.43
2018-10-19T10:46:31.269Z,46.80
2018-10-19T10:48:59.391Z,46.50
2018-10-19T10:51:27.987Z,48.20
2018-10-19T10:53:56.010Z,49.20
2018-10-19T10:56:24.836Z,48.67
2018-10-19T10:58:52.841Z,46.20
2018-10-19T11:01:20.831Z,48.33
2018-10-19T11:03:49.234Z,45.70
2018-10-19T11:06:17.224Z,47.83
2018-10-19T11:08:45.317Z,49.37
2018-10-19T11:11:14.362Z,51.33
2018-10-19T11:13:43.244Z,49.40
2018-10-19T11:16:12.266Z,50.57
2018-10-19T11:18:40.474Z,50.60
2018-10-19T11:21:08.595Z,51.93
2018-10-19T11:23:36.585Z,52.40
2018-10-19T11:26:05.119Z,51.03
2018-10-19T11:28:33.122Z,53.30
2018-10-19T11:31:01.691Z,55.90
2018-10-19T11:33:29.681Z,53.87
2018-10-19T11:35:57.698Z,56.27
2018-10-19T11:38:25.738Z,54.17
2018-10-19T11:40:53.726Z,52.73
2018-10-19T11:43:21.731Z,54.43
2018-10-19T11:45:49.759Z,54.80
2018-10-19T11:48:17.750Z,53.53
2018-10-19T11:50:45.789Z,53.73
2018-10-19T11:53:13.778Z,54.27
2018-10-19T11:55:41.857Z,53.50
2018-10-19T11:58:09.908Z,57.33
2018-10-19T12:00:37.858Z,53.70
2018-10-19T12:03:05.876Z,57.20
2018-10-19T12:05:33.876Z,54.87
2018-10-19T12:08:01.845Z,55.40
2018-10-19T12:10:29.869Z,54.00
2018-10-19T12:12:57.860Z,55.70
2018-10-19T12:15:25.845Z,54.70
2018-10-19T12:17:53.821Z,52.43
2018-10-19T12:20:21.797Z,49.80
2018-10-19T12:22:49.753Z,48.53
2018-10-19T12:25:18.143Z,49.47
2018-10-19T12:27:46.148Z,49.77
2018-10-19T12:30:14.158Z,49.30
2018-10-19T12:32:42.249Z,52.57
2018-10-19T12:35:11.653Z,52.03
2018-10-19T12:37:39.802Z,55.00
2018-10-19T12:40:07.993Z,55.93
2018-10-19T12:42:36.402Z,53.03
2018-10-19T12:45:04.985Z,54.97
2018-10-19T12:47:37.241Z,53.43
2018-10-19T12:50:05.367Z,54.23
2018-10-19T12:52:33.355Z,54.00
2018-10-19T12:55:01.381Z,54.77
2018-10-19T12:57:29.405Z,53.13
2018-10-19T12:59:57.451Z,55.80
2018-10-19T13:02:25.445Z,56.37
2018-10-19T13:04:53.454Z,54.80
2018-10-19T13:07:21.592Z,56.73
2018-10-19T13:09:49.846Z,56.17
2018-10-19T13:12:17.871Z,57.23
2018-10-19T13:14:45.861Z,58.53
2018-10-19T13:17:13.893Z,57.13
2018-10-19T13:19:41.886Z,58.60
2018-10-19T13:22:09.860Z,61.00
2018-10-19T13:24:37.913Z,63.00
2018-10-19T13:27:06.023Z,63.57
2018-10-19T13:29:34.018Z,63.30
2018-10-19T13:32:02.019Z,65.47
2018-10-19T13:34:30.106Z,63.43
2018-10-19T13:36:58.045Z,69.57
2018-10-19T13:39:26.109Z,70.67
2018-10-19T13:41:54.137Z,71.20
2018-10-19T13:44:22.139Z,71.47
2018-10-19T13:46:50.165Z,65.97
2018-10-19T13:49:18.182Z,66.67
2018-10-19T13:51:46.370Z,68.73
2018-10-19T13:54:14.370Z,71.23
2018-10-19T13:56:42.407Z,69.27
2018-10-19T13:59:10.440Z,69.70
2018-10-19T14:01:38.382Z,72.70
2018-10-19T14:04:06.404Z,69.77
2018-10-19T14:06:34.625Z,69.53
2018-10-19T14:09:02.735Z,72.10
2018-10-19T14:11:30.938Z,71.17
2018-10-19T14:13:59.070Z,68.33
2018-10-19T14:16:27.071Z,65.27
2018-10-19T14:18:55.084Z,67.20
2018-10-19T14:21:23.118Z,66.47
2018-10-19T14:23:51.376Z,71.20
2018-10-19T14:26:19.349Z,69.57
2018-10-19T14:28:47.354Z,67.10
2018-10-19T14:31:15.373Z,64.23
2018-10-19T14:33:43.558Z,69.57
2018-10-19T14:36:11.382Z,69.37
2018-10-19T14:38:39.422Z,66.77
2018-10-19T14:41:07.448Z,66.37
2018-10-19T14:43:35.443Z,67.83
2018-10-19T14:46:03.882Z,67.73
2018-10-19T14:48:31.928Z,67.40
2018-10-19T14:51:00.058Z,70.70
2018-10-19T14:53:27.997Z,69.67
2018-10-19T14:55:56.019Z,68.57
2018-10-19T14:58:24.214Z,67.73
2018-10-19T15:00:52.260Z,69.47
2018-10-19T15:03:20.274Z,67.40
2018-10-19T15:05:48.286Z,60.93
2018-10-19T15:08:16.293Z,66.77
2018-10-19T15:10:44.569Z,67.10
2018-10-19T15:13:12.305Z,62.40
2018-10-19T15:15:40.726Z,64.83
2018-10-19T15:18:08.770Z,64.00
2018-10-19T15:20:36.766Z,60.83
2018-10-19T15:23:04.793Z,59.63
2018-10-19T15:25:32.811Z,59.90
2018-10-19T15:28:01.032Z,62.80
2018-10-19T15:30:29.034Z,61.33
2018-10-19T15:32:57.052Z,58.63
2018-10-19T15:35:25.076Z,58.27
2018-10-19T15:37:53.121Z,60.87
2018-10-19T15:40:21.122Z,55.37
2018-10-19T15:42:49.499Z,57.60
2018-10-19T15:45:17.502Z,57.97
2018-10-19T15:47:45.510Z,56.90
2018-10-19T15:50:13.507Z,60.10
2018-10-19T15:52:41.499Z,57.77
2018-10-19T15:55:09.519Z,59.10
2018-10-19T15:57:37.549Z,58.03
2018-10-19T16:00:06.793Z,57.17
2018-10-19T16:02:35.728Z,58.10
2018-10-19T16:05:03.803Z,61.20
2018-10-19T16:07:31.847Z,61.00
2018-10-19T16:09:59.886Z,60.23
2018-10-19T16:12:27.901Z,58.40
2018-10-19T16:14:55.967Z,55.30
2018-10-19T16:17:24.015Z,61.87
2018-10-19T16:19:52.030Z,60.27
2018-10-19T16:22:20.049Z,58.87
2018-10-19T16:24:48.090Z,63.77
2018-10-19T16:27:16.323Z,60.63
2018-10-19T16:29:44.253Z,57.53
2018-10-19T16:32:12.311Z,59.97
2018-10-19T16:34:40.691Z,56.90
2018-10-19T16:37:08.652Z,58.60
2018-10-19T16:39:36.659Z,55.97
2018-10-19T16:42:04.751Z,53.40
2018-10-19T16:44:33.112Z,57.00
2018-10-19T16:47:01.163Z,55.10
2018-10-19T16:49:29.145Z,60.13
2018-10-19T16:51:57.265Z,57.60
2018-10-19T16:54:25.308Z,63.67
2018-10-19T16:56:53.301Z,64.90
2018-10-19T16:59:21.534Z,61.27
2018-10-19T17:01:49.565Z,64.70
2018-10-19T17:04:17.841Z,62.50
2018-10-19T17:06:45.884Z,68.27
2018-10-19T17:09:14.745Z,65.40
2018-10-19T17:11:53.874Z,60.90
2018-10-19T17:14:21.790Z,59.87
2018-10-19T17:16:50.185Z,62.73
2018-10-19T17:19:18.194Z,62.40
2018-10-19T17:21:46.263Z,64.53
2018-10-19T17:24:14.313Z,70.20
2018-10-19T17:26:42.345Z,73.67
2018-10-19T17:29:10.495Z,72.40
2018-10-19T17:31:38.553Z,74.83
2018-10-19T17:34:06.715Z,79.10
2018-10-19T17:36:34.707Z,70.13
2018-10-19T17:39:03.054Z,71.87
2018-10-19T17:41:31.045Z,70.33
2018-10-19T17:43:59.096Z,75.67
2018-10-19T17:46:27.130Z,79.37
2018-10-19T17:48:55.202Z,73.50
2018-10-19T17:51:23.369Z,80.93
2018-10-19T17:53:51.432Z,82.10
2018-10-19T17:56:19.413Z,79.00
2018-10-19T17:58:47.605Z,70.87
2018-10-19T18:01:16.172Z,73.07
2018-10-19T18:03:44.252Z,76.80
2018-10-19T18:06:12.356Z,75.73
2018-10-19T18:08:40.355Z,80.60
2018-10-19T18:11:08.488Z,75.00
2018-10-19T18:13:36.506Z,82.07
2018-10-19T18:16:04.607Z,80.57
2018-10-19T18:18:32.520Z,84.67
2018-10-19T18:21:01.535Z,83.40
2018-10-19T18:23:29.532Z,83.83
2018-10-19T18:25:57.612Z,82.63
2018-10-19T18:28:26.077Z,78.73
2018-10-19T18:30:54.160Z,78.77
2018-10-19T18:33:22.187Z,79.10
2018-10-19T18:35:50.246Z,81.13
2018-10-19T18:38:18.324Z,79.13
2018-10-19T18:40:46.523Z,73.97
2018-10-19T18:43:14.951Z,78.90
2018-10-19T18:45:43.598Z,75.07
2018-10-19T18:48:11.604Z,75.87
2018-10-19T18:50:39.687Z,76.87
2018-10-19T18:53:07.804Z,83.30
2018-10-19T18:55:35.926Z,84.70
2018-10-19T18:58:04.004Z,83.50
2018-10-19T19:00:32.033Z,88.60
2018-10-19T19:03:00.055Z,83.20
2018-10-19T19:05:28.532Z,84.53
2018-10-19T19:07:56.772Z,97.43
2018-10-19T19:10:24.765Z,96.60
2018-10-19T19:13:27.665Z,99.90
2018-10-19T19:15:55.869Z,98.80
2018-10-19T19:18:24.105Z,103.30
2018-10-19T19:20:52.176Z,94.13
2018-10-19T19:23:20.278Z,91.30
2018-10-19T19:25:53.589Z,84.87
2018-10-19T19:28:21.706Z,78.77
2018-10-19T19:30:49.722Z,95.47
2018-10-19T19:33:23.342Z,94.60
2018-10-19T19:35:51.432Z,96.57
2018-10-19T19:38:19.741Z,90.77
2018-10-19T19:40:53.606Z,88.40
2018-10-19T19:43:21.807Z,89.50
2018-10-19T19:45:49.879Z,83.60
2018-10-19T19:48:23.411Z,79.57
2018-10-19T19:50:51.429Z,77.03
2018-10-19T19:53:19.558Z,73.80
2018-10-19T19:55:47.649Z,74.80
2018-10-19T19:58:15.763Z,80.00
2018-10-19T20:00:43.766Z,98.80
2018-10-19T20:03:11.827Z,119.27
2018-10-19T20:05:39.902Z,94.07
2018-10-19T20:08:08.055Z,87.57
2018-10-19T20:10:36.108Z,92.47
2018-10-19T20:13:04.170Z,96.37
2018-10-19T20:15:32.648Z,101.20
2018-10-19T20:18:00.727Z,102.17
2018-10-19T20:20:28.818Z,108.17
2018-10-19T20:22:57.345Z,109.57
2018-10-19T20:25:25.603Z,108.37
2018-10-19T20:27:53.705Z,100.70
2018-10-19T20:30:22.312Z,105.80
2018-10-19T20:32:50.489Z,96.60
2018-10-19T20:35:18.783Z,101.50
2018-10-19T20:37:47.264Z,96.87
2018-10-19T20:40:15.304Z,105.07
2018-10-19T20:42:43.417Z,108.37
2018-10-19T20:45:11.606Z,108.57
2018-10-19T20:47:40.026Z,106.10
2018-10-19T20:50:08.276Z,108.20
2018-10-19T20:52:36.365Z,106.80
2018-10-19T20:55:04.574Z,106.40
2018-10-19T20:57:32.692Z,97.87
2018-10-19T21:00:00.790Z,101.57
2018-10-19T21:02:28.888Z,106.90
2018-10-19T21:04:57.081Z,99.07
2018-10-19T21:07:25.287Z,98.17
2018-10-19T21:09:53.197Z,98.20
2018-10-19T21:12:21.622Z,103.03
2018-10-19T21:14:49.698Z,106.43
2018-10-19T21:17:17.735Z,108.20
2018-10-19T21:19:46.022Z,105.43
2018-10-19T21:22:14.047Z,106.83
2018-10-19T21:24:42.204Z,114.10
2018-10-19T21:27:10.270Z,108.93
2018-10-19T21:29:38.772Z,110.50
2018-10-19T21:32:07.097Z,110.00
2018-10-19T21:34:48.490Z,105.30
2018-10-19T21:37:16.526Z,105.03
2018-10-19T21:39:44.666Z,102.67
2018-10-19T21:42:12.681Z,105.20
2018-10-19T21:44:40.827Z,103.97
2018-10-19T21:47:08.934Z,108.40
2018-10-19T21:49:36.963Z,104.43
2018-10-19T21:52:05.176Z,107.27
2018-10-19T21:54:33.472Z,108.43
2018-10-19T21:57:18.060Z,102.43
2018-10-19T21:59:46.083Z,102.90
